createdAt,value
2023-04-01T16:01:44.684Z,5.70
2023-04-01T16:01:55.495Z,6.10
2023-04-01T16:02:05.508Z,6.00
2023-04-01T16:02:15.515Z,6.00
2023-04-01T16:02:25.685Z,5.90
2023-04-01T16:02:36.057Z,5.70
2023-04-01T16:02:46.124Z,5.60
2023-04-01T16:02:56.149Z,4.90
2023-04-01T16:03:06.323Z,4.80
2023-04-01T16:03:16.584Z,4.60
2023-04-01T16:03:26.806Z,4.40
2023-04-01T16:03:36.873Z,4.00
2023-04-01T16:03:46.918Z,4.10
2023-04-01T16:03:56.957Z,4.50
2023-04-01T16:04:07.173Z,4.90
2023-04-01T16:04:17.074Z,4.70
2023-04-01T16:04:27.284Z,4.10
2023-04-01T16:04:37.366Z,3.70
2023-04-01T16:04:47.575Z,3.80
2023-04-01T16:04:57.501Z,3.70
2023-04-01T16:05:07.768Z,3.50
2023-04-01T16:05:17.924Z,3.30
2023-04-01T16:05:27.816Z,4.00
2023-04-01T16:05:38.002Z,3.80
2023-04-01T16:05:48.202Z,4.30
2023-04-01T16:05:58.878Z,4.10
2023-04-01T16:06:08.341Z,4.50
2023-04-01T16:06:18.507Z,5.00
2023-04-01T16:06:28.589Z,5.40
2023-04-01T16:06:38.883Z,5.30
2023-04-01T16:06:48.990Z,4.60
2023-04-01T16:06:59.013Z,5.00
2023-04-01T16:07:09.495Z,4.70
2023-04-01T16:07:19.717Z,4.90
2023-04-01T16:07:29.428Z,4.30
2023-04-01T16:07:39.486Z,4.80
2023-04-01T16:07:50.285Z,5.20
2023-04-01T16:08:00.180Z,5.40
2023-04-01T16:08:09.808Z,5.80
2023-04-01T16:08:20.099Z,5.80
2023-04-01T16:08:30.685Z,5.10
2023-04-01T16:08:40.373Z,4.90
2023-04-01T16:08:50.447Z,4.90
2023-04-01T16:09:00.570Z,5.20
2023-04-01T16:09:10.803Z,4.60
2023-04-01T16:09:20.982Z,4.20
2023-04-01T16:09:30.939Z,4.80
2023-04-01T16:09:41.856Z,5.40
2023-04-01T16:09:51.320Z,6.20
2023-04-01T16:10:01.355Z,6.90
2023-04-01T16:10:11.393Z,7.40
2023-04-01T16:10:21.606Z,7.20
2023-04-01T16:10:34.303Z,7.10
2023-04-01T16:10:41.886Z,7.30
2023-04-01T16:10:52.168Z,7.50
2023-04-01T16:11:02.846Z,7.10
2023-04-01T16:11:12.321Z,6.60
2023-04-01T16:11:22.384Z,6.70
2023-04-01T16:11:32.588Z,6.50
2023-04-01T16:11:42.757Z,6.50
2023-04-01T16:11:53.100Z,7.00
2023-04-01T16:12:03.005Z,7.50
2023-04-01T16:12:13.991Z,7.40
2023-04-01T16:12:23.389Z,6.60
2023-04-01T16:12:33.374Z,7.10
2023-04-01T16:12:43.528Z,6.90
2023-04-01T16:12:53.584Z,7.50
2023-04-01T16:13:03.760Z,7.40
2023-04-01T16:13:25.250Z,8.20
2023-04-01T16:13:34.101Z,8.00
2023-04-01T16:13:45.126Z,7.90
2023-04-01T16:13:54.386Z,6.40
2023-04-01T16:14:04.527Z,6.20
2023-04-01T16:14:14.826Z,7.30
2023-04-01T16:14:36.039Z,8.30
2023-04-01T16:14:45.009Z,8.20
2023-04-01T16:14:55.088Z,13.60
2023-04-01T16:15:05.160Z,13.20
2023-04-01T16:15:15.288Z,13.40
2023-04-01T16:15:25.511Z,7.90
2023-04-01T16:15:44.736Z,8.20
2023-04-01T16:15:55.889Z,8.10
2023-04-01T16:16:06.023Z,7.60
2023-04-01T16:16:16.144Z,7.90
2023-04-01T16:16:26.846Z,7.40
2023-04-01T16:16:36.551Z,6.90
2023-04-01T16:16:46.542Z,6.90
2023-04-01T16:16:56.527Z,6.70
2023-04-01T16:17:06.712Z,6.50
2023-04-01T16:17:16.990Z,5.80
2023-04-01T16:17:27.106Z,5.50
2023-04-01T16:17:37.287Z,5.50
2023-04-01T16:17:47.882Z,5.90
2023-04-01T16:17:57.384Z,6.20
2023-04-01T16:18:07.443Z,6.00
2023-04-01T16:18:17.572Z,5.50
2023-04-01T16:18:27.839Z,6.30
2023-04-01T16:18:37.848Z,6.80
2023-04-01T16:18:48.025Z,7.00
2023-04-01T16:18:58.059Z,5.70
2023-04-01T16:19:08.109Z,5.10
2023-04-01T16:19:18.325Z,4.70
2023-04-01T16:19:28.475Z,5.90
2023-04-01T16:19:38.564Z,11.10
2023-04-01T16:19:48.541Z,12.00
2023-04-01T16:19:58.733Z,12.40
2023-04-01T16:20:08.785Z,8.50
2023-04-01T16:20:19.041Z,8.70
2023-04-01T16:20:29.182Z,8.00
2023-04-01T16:20:39.541Z,7.60
2023-04-01T16:20:50.589Z,6.90
2023-04-01T16:20:59.580Z,7.70
2023-04-01T16:21:09.746Z,8.60
2023-04-01T16:21:19.898Z,11.60
2023-04-01T16:21:29.991Z,11.70
2023-04-01T16:21:40.117Z,13.10
2023-04-01T16:22:02.347Z,10.70
2023-04-01T16:22:10.528Z,8.50
2023-04-01T16:22:20.906Z,8.50
2023-04-01T16:22:30.659Z,8.40
2023-04-01T16:22:40.749Z,8.60
2023-04-01T16:22:51.431Z,8.60
2023-04-01T16:23:01.038Z,7.80
2023-04-01T16:23:11.149Z,8.30
2023-04-01T16:23:21.221Z,7.80
2023-04-01T16:23:31.367Z,8.00
2023-04-01T16:23:42.579Z,7.50
2023-04-01T16:23:51.482Z,8.00
2023-04-01T16:24:02.555Z,8.30
2023-04-01T16:24:12.085Z,27.10
2023-04-01T16:24:21.859Z,31.80
2023-04-01T16:24:32.033Z,39.50
2023-04-01T16:24:52.345Z,24.40
2023-04-01T16:25:03.476Z,19.40
2023-04-01T16:25:12.580Z,17.10
2023-04-01T16:25:24.458Z,15.70
2023-04-01T16:25:32.912Z,14.00
2023-04-01T16:25:42.865Z,11.00
2023-04-01T16:25:54.131Z,7.60
2023-04-01T16:26:13.438Z,7.10
2023-04-01T16:26:23.458Z,7.30
2023-04-01T16:26:33.609Z,7.50
2023-04-01T16:26:43.689Z,7.60
2023-04-01T16:26:53.866Z,37.20
2023-04-01T16:27:04.929Z,53.50
2023-04-01T16:27:14.085Z,75.60
2023-04-01T16:27:24.155Z,53.30
2023-04-01T16:27:34.292Z,44.90
2023-04-01T16:27:44.494Z,25.90
2023-04-01T16:27:56.130Z,22.40
2023-04-01T16:28:14.994Z,12.60
2023-04-01T16:28:25.209Z,10.50
2023-04-01T16:28:35.247Z,10.20
2023-04-01T16:28:45.338Z,11.20
2023-04-01T16:28:55.431Z,11.90
2023-04-01T16:29:05.489Z,11.70
2023-04-01T16:29:15.701Z,11.00
2023-04-01T16:29:25.798Z,10.50
2023-04-01T16:29:35.902Z,10.70
2023-04-01T16:29:45.945Z,10.30
2023-04-01T16:29:56.170Z,9.80
2023-04-01T16:30:06.205Z,9.90
2023-04-01T16:30:16.289Z,11.80
2023-04-01T16:30:26.470Z,12.60
2023-04-01T16:30:36.608Z,12.00
2023-04-01T16:30:46.948Z,9.50
2023-04-01T16:30:58.212Z,8.60
2023-04-01T16:31:07.043Z,8.60
2023-04-01T16:31:17.306Z,10.50
2023-04-01T16:31:27.691Z,11.20
2023-04-01T16:31:37.593Z,12.00
2023-04-01T16:31:47.472Z,10.40
2023-04-01T16:32:06.775Z,9.50
2023-04-01T16:32:18.039Z,9.40
2023-04-01T16:32:27.969Z,10.00
2023-04-01T16:32:38.154Z,10.10
2023-04-01T16:32:48.456Z,9.30
2023-04-01T16:32:58.426Z,7.30
2023-04-01T16:33:08.785Z,5.90
2023-04-01T16:33:18.604Z,7.60
2023-04-01T16:33:29.695Z,8.30
2023-04-01T16:33:38.895Z,10.60
2023-04-01T16:33:49.129Z,9.20
2023-04-01T16:33:59.161Z,10.00
2023-04-01T16:34:09.261Z,8.10
2023-04-01T16:34:19.439Z,8.10
2023-04-01T16:34:39.775Z,9.70
2023-04-01T16:34:49.732Z,17.50
2023-04-01T16:35:00.270Z,18.50
2023-04-01T16:35:10.050Z,16.60
2023-04-01T16:35:20.477Z,8.20
2023-04-01T16:35:30.441Z,7.80
2023-04-01T16:35:40.636Z,7.40
2023-04-01T16:35:50.703Z,7.60
2023-04-01T16:36:00.800Z,7.30
2023-04-01T16:36:12.100Z,7.70
2023-04-01T16:36:21.042Z,7.40
2023-04-01T16:36:31.112Z,7.90
2023-04-01T16:36:42.045Z,7.30
2023-04-01T16:36:51.418Z,7.30
2023-04-01T16:37:01.497Z,6.40
2023-04-01T16:37:11.557Z,6.20
2023-04-01T16:37:21.871Z,5.80
2023-04-01T16:37:31.949Z,5.60
2023-04-01T16:37:42.104Z,5.80
2023-04-01T16:37:52.344Z,5.80
2023-04-01T16:38:03.220Z,6.10
2023-04-01T16:38:12.714Z,6.70
2023-04-01T16:38:22.637Z,7.10
2023-04-01T16:38:32.672Z,7.30
2023-04-01T16:38:42.801Z,7.40
2023-04-01T16:38:52.996Z,8.00
2023-04-01T16:39:03.245Z,8.60
2023-04-01T16:39:13.237Z,8.80
2023-04-01T16:39:23.584Z,9.50
2023-04-01T16:39:33.442Z,21.70
2023-04-01T16:39:43.656Z,27.30
2023-04-01T16:39:53.471Z,32.90
2023-04-01T16:40:03.688Z,24.10
2023-04-01T16:40:14.106Z,18.90
2023-04-01T16:40:24.016Z,12.60
2023-04-01T16:40:35.433Z,10.10
2023-04-01T16:40:44.347Z,8.60
2023-04-01T16:40:54.308Z,7.70
2023-04-01T16:41:04.493Z,12.30
2023-04-01T16:41:14.555Z,17.00
2023-04-01T16:41:24.623Z,21.00
2023-04-01T16:41:45.111Z,15.00
2023-04-01T16:41:56.028Z,14.30
2023-04-01T16:42:05.268Z,18.00
2023-04-01T16:42:15.506Z,22.80
2023-04-01T16:42:25.464Z,20.30
2023-04-01T16:42:35.780Z,15.80
2023-04-01T16:42:45.779Z,7.70
2023-04-01T16:43:06.897Z,9.10
2023-04-01T16:43:16.186Z,10.40
2023-04-01T16:43:26.244Z,10.30
2023-04-01T16:43:36.444Z,10.30
2023-04-01T16:43:47.226Z,9.10
2023-04-01T16:43:56.739Z,7.60
2023-04-01T16:44:07.399Z,6.50
2023-04-01T16:44:16.906Z,6.90
2023-04-01T16:44:27.062Z,7.60
2023-04-01T16:44:37.151Z,7.60
2023-04-01T16:44:47.945Z,6.20
2023-04-01T16:44:58.197Z,5.40
2023-04-01T16:45:07.484Z,5.40
2023-04-01T16:45:18.411Z,5.80
2023-04-01T16:45:27.816Z,5.50
2023-04-01T16:45:38.636Z,5.00
2023-04-01T16:45:48.081Z,4.80
2023-04-01T16:45:58.087Z,4.80
2023-04-01T16:46:08.335Z,5.20
2023-04-01T16:46:18.393Z,5.10
2023-04-01T16:46:28.526Z,5.00
2023-04-01T16:46:38.686Z,4.50
2023-04-01T16:46:48.809Z,4.00
2023-04-01T16:46:59.088Z,3.80
2023-04-01T16:47:09.257Z,3.70
2023-04-01T16:47:19.231Z,3.80
2023-04-01T16:47:29.457Z,3.60
2023-04-01T16:47:40.580Z,3.50
2023-04-01T16:47:49.741Z,3.40
2023-04-01T16:47:59.762Z,3.40
2023-04-01T16:48:09.866Z,3.50
2023-04-01T16:48:19.968Z,3.60
2023-04-01T16:48:30.017Z,3.80
2023-04-01T16:48:50.356Z,4.30
2023-04-01T16:49:00.533Z,4.20
2023-04-01T16:49:10.611Z,4.00
2023-04-01T16:49:20.662Z,3.90
2023-04-01T16:49:30.686Z,4.00
2023-04-01T16:49:40.829Z,3.70
2023-04-01T16:49:51.080Z,3.70
2023-04-01T16:50:01.109Z,3.80
2023-04-01T16:50:11.193Z,4.70
2023-04-01T16:50:21.320Z,5.10
2023-04-01T16:50:33.068Z,5.70
2023-04-01T16:50:41.683Z,5.70
2023-04-01T16:50:51.734Z,6.20
2023-04-01T16:51:01.865Z,7.40
2023-04-01T16:51:11.981Z,6.70
2023-04-01T16:51:22.205Z,5.60
2023-04-01T16:51:32.184Z,3.40
2023-04-01T16:51:43.535Z,3.40
2023-04-01T16:51:52.591Z,3.50
2023-04-01T16:52:02.624Z,3.70
2023-04-01T16:52:12.830Z,3.70
2023-04-01T16:52:22.929Z,3.90
2023-04-01T16:52:34.830Z,3.60
2023-04-01T16:52:53.434Z,3.90
2023-04-01T16:53:04.296Z,4.10
2023-04-01T16:53:13.438Z,4.00
2023-04-01T16:53:23.810Z,3.80
2023-04-01T16:53:36.299Z,3.70
2023-04-01T16:53:43.928Z,4.60
2023-04-01T16:53:54.031Z,6.40
2023-04-01T16:54:14.947Z,5.20
2023-04-01T16:54:24.373Z,3.20
2023-04-01T16:54:34.516Z,2.80
2023-04-01T16:54:44.739Z,2.70
2023-04-01T16:54:54.714Z,2.60
2023-04-01T16:55:05.116Z,3.10
2023-04-01T16:55:15.117Z,3.30
2023-04-01T16:55:25.954Z,3.70
2023-04-01T16:55:35.218Z,3.50
2023-04-01T16:55:45.470Z,3.50
2023-04-01T16:55:55.809Z,3.50
2023-04-01T16:56:06.437Z,3.80
2023-04-01T16:56:15.798Z,4.40
2023-04-01T16:56:36.154Z,5.70
2023-04-01T16:56:46.122Z,5.70
2023-04-01T16:56:57.018Z,5.60
2023-04-01T16:57:06.412Z,5.50
2023-04-01T16:57:16.601Z,5.40
2023-04-01T16:57:26.811Z,5.60
2023-04-01T16:57:36.890Z,5.40
2023-04-01T16:57:47.414Z,5.60
2023-04-01T16:57:57.154Z,5.50
2023-04-01T16:58:07.286Z,6.00
2023-04-01T16:58:17.305Z,5.90
2023-04-01T16:58:27.959Z,5.70
2023-04-01T16:58:37.513Z,5.40
2023-04-01T16:58:47.759Z,5.10
2023-04-01T16:58:57.736Z,5.20
2023-04-01T16:59:08.474Z,5.20
2023-04-01T16:59:17.963Z,5.60
2023-04-01T16:59:28.152Z,5.70
2023-04-01T16:59:38.439Z,5.40
2023-04-01T16:59:48.382Z,5.00
2023-04-01T16:59:58.490Z,5.10
2023-04-01T17:00:08.626Z,5.40
2023-04-01T17:00:18.652Z,5.80
2023-04-01T17:00:28.753Z,5.40
2023-04-01T17:00:39.050Z,5.20
2023-04-01T17:00:49.418Z,5.10
2023-04-01T17:00:59.316Z,5.10
2023-04-01T17:01:09.407Z,5.00
2023-04-01T17:01:19.381Z,5.00
2023-04-01T17:01:29.938Z,5.40
2023-04-01T17:01:39.855Z,8.20
2023-04-01T17:01:50.498Z,14.40
2023-04-01T17:01:59.956Z,15.00
2023-04-01T17:02:10.326Z,12.20
2023-04-01T17:02:20.187Z,5.90
2023-04-01T17:02:30.700Z,5.20
2023-04-01T17:02:40.563Z,5.40
2023-04-01T17:02:50.551Z,5.30
2023-04-01T17:03:00.952Z,5.00
2023-04-01T17:03:10.723Z,5.10
2023-04-01T17:03:21.057Z,5.10
2023-04-01T17:03:31.257Z,4.80
2023-04-01T17:03:41.140Z,4.80
2023-04-01T17:03:51.904Z,5.10
